sensor_id;sensor_type;location;lat;lon;timestamp;P1;durP1;ratioP1;P2;durP2;ratioP2
51048;SDS011;37084;55.228;36.450;2023-07-02T00:01:27;7.72;;;4.57;;
51048;SDS011;37084;55.228;36.450;2023-07-02T00:04:28;8.45;;;4.50;;
51048;SDS011;37084;55.228;36.450;2023-07-02T00:07:30;8.80;;;4.80;;
51048;SDS011;37084;55.228;36.450;2023-07-02T00:10:32;9.65;;;5.13;;
51048;SDS011;37084;55.228;36.450;2023-07-02T00:13:33;6.45;;;4.30;;
51048;SDS011;37084;55.228;36.450;2023-07-02T00:16:35;7.25;;;4.78;;
51048;SDS011;37084;55.228;36.450;2023-07-02T00:19:38;6.60;;;4.78;;
51048;SDS011;37084;55.228;36.450;2023-07-02T00:22:43;8.80;;;4.93;;
51048;SDS011;37084;55.228;36.450;2023-07-02T00:25:45;7.97;;;4.72;;
51048;SDS011;37084;55.228;36.450;2023-07-02T00:28:46;7.85;;;4.55;;
51048;SDS011;37084;55.228;36.450;2023-07-02T00:31:47;6.38;;;4.20;;
51048;SDS011;37084;55.228;36.450;2023-07-02T00:34:49;7.00;;;4.63;;
51048;SDS011;37084;55.228;36.450;2023-07-02T00:37:50;6.38;;;4.72;;
51048;SDS011;37084;55.228;36.450;2023-07-02T00:40:52;6.88;;;4.72;;
51048;SDS011;37084;55.228;36.450;2023-07-02T00:43:53;7.90;;;4.75;;
51048;SDS011;37084;55.228;36.450;2023-07-02T00:46:56;6.47;;;4.43;;
51048;SDS011;37084;55.228;36.450;2023-07-02T00:49:57;6.80;;;4.70;;
51048;SDS011;37084;55.228;36.450;2023-07-02T00:53:01;7.85;;;5.38;;
51048;SDS011;37084;55.228;36.450;2023-07-02T00:56:02;7.70;;;5.07;;
51048;SDS011;37084;55.228;36.450;2023-07-02T00:59:04;6.90;;;4.53;;
51048;SDS011;37084;55.228;36.450;2023-07-02T01:02:07;9.57;;;4.90;;
51048;SDS011;37084;55.228;36.450;2023-07-02T01:05:08;7.07;;;4.65;;
51048;SDS011;37084;55.228;36.450;2023-07-02T01:08:09;9.35;;;4.82;;
51048;SDS011;37084;55.228;36.450;2023-07-02T01:11:12;7.97;;;4.78;;
51048;SDS011;37084;55.228;36.450;2023-07-02T01:14:15;9.52;;;5.30;;
51048;SDS011;37084;55.228;36.450;2023-07-02T01:17:19;6.40;;;4.15;;
51048;SDS011;37084;55.228;36.450;2023-07-02T01:20:22;7.38;;;5.10;;
51048;SDS011;37084;55.228;36.450;2023-07-02T01:23:24;8.75;;;4.53;;
51048;SDS011;37084;55.228;36.450;2023-07-02T01:26:27;8.70;;;4.85;;
51048;SDS011;37084;55.228;36.450;2023-07-02T01:29:35;6.25;;;4.22;;
51048;SDS011;37084;55.228;36.450;2023-07-02T01:32:40;7.63;;;5.40;;
51048;SDS011;37084;55.228;36.450;2023-07-02T01:35:41;9.15;;;4.57;;
51048;SDS011;37084;55.228;36.450;2023-07-02T01:38:42;7.85;;;4.88;;
51048;SDS011;37084;55.228;36.450;2023-07-02T01:41:54;7.18;;;4.88;;
51048;SDS011;37084;55.228;36.450;2023-07-02T01:44:56;12.82;;;6.47;;
51048;SDS011;37084;55.228;36.450;2023-07-02T01:47:57;7.18;;;4.97;;
51048;SDS011;37084;55.228;36.450;2023-07-02T01:50:59;7.60;;;5.28;;
51048;SDS011;37084;55.228;36.450;2023-07-02T01:54:00;7.40;;;5.05;;
51048;SDS011;37084;55.228;36.450;2023-07-02T01:57:02;8.93;;;5.68;;
51048;SDS011;37084;55.228;36.450;2023-07-02T02:00:03;9.27;;;6.07;;
51048;SDS011;37084;55.228;36.450;2023-07-02T02:03:16;8.13;;;5.75;;
51048;SDS011;37084;55.228;36.450;2023-07-02T02:06:18;9.18;;;5.55;;
51048;SDS011;37084;55.228;36.450;2023-07-02T02:09:20;9.10;;;5.65;;
51048;SDS011;37084;55.228;36.450;2023-07-02T02:12:21;9.07;;;5.65;;
51048;SDS011;37084;55.228;36.450;2023-07-02T02:15:23;8.38;;;5.63;;
51048;SDS011;37084;55.228;36.450;2023-07-02T02:18:25;7.45;;;5.32;;
51048;SDS011;37084;55.228;36.450;2023-07-02T02:21:47;7.22;;;4.85;;
51048;SDS011;37084;55.228;36.450;2023-07-02T02:24:48;8.23;;;4.57;;
51048;SDS011;37084;55.228;36.450;2023-07-02T02:27:49;10.02;;;5.03;;
51048;SDS011;37084;55.228;36.450;2023-07-02T02:30:51;7.13;;;4.80;;
51048;SDS011;37084;55.228;36.450;2023-07-02T02:33:53;8.20;;;4.97;;
51048;SDS011;37084;55.228;36.450;2023-07-02T02:36:54;6.65;;;4.30;;
51048;SDS011;37084;55.228;36.450;2023-07-02T02:39:57;8.30;;;4.63;;
51048;SDS011;37084;55.228;36.450;2023-07-02T02:42:59;9.15;;;4.45;;
51048;SDS011;37084;55.228;36.450;2023-07-02T02:46:00;6.72;;;4.20;;
51048;SDS011;37084;55.228;36.450;2023-07-02T02:49:02;9.02;;;4.28;;
51048;SDS011;37084;55.228;36.450;2023-07-02T02:52:03;6.75;;;4.80;;
51048;SDS011;37084;55.228;36.450;2023-07-02T02:55:05;6.85;;;4.53;;
51048;SDS011;37084;55.228;36.450;2023-07-02T02:58:07;6.45;;;4.63;;
51048;SDS011;37084;55.228;36.450;2023-07-02T03:01:08;6.35;;;4.60;;
51048;SDS011;37084;55.228;36.450;2023-07-02T03:04:11;6.60;;;4.30;;
51048;SDS011;37084;55.228;36.450;2023-07-02T03:07:13;8.07;;;4.40;;
51048;SDS011;37084;55.228;36.450;2023-07-02T03:10:14;6.55;;;3.80;;
51048;SDS011;37084;55.228;36.450;2023-07-02T03:13:16;8.32;;;4.55;;
51048;SDS011;37084;55.228;36.450;2023-07-02T03:16:18;7.15;;;4.63;;
51048;SDS011;37084;55.228;36.450;2023-07-02T03:19:22;8.70;;;4.43;;
51048;SDS011;37084;55.228;36.450;2023-07-02T03:22:23;6.20;;;4.20;;
51048;SDS011;37084;55.228;36.450;2023-07-02T03:25:25;9.38;;;4.10;;
51048;SDS011;37084;55.228;36.450;2023-07-02T03:28:26;7.20;;;4.18;;
51048;SDS011;37084;55.228;36.450;2023-07-02T03:31:27;6.05;;;4.05;;
51048;SDS011;37084;55.228;36.450;2023-07-02T03:34:28;6.70;;;3.83;;
51048;SDS011;37084;55.228;36.450;2023-07-02T03:37:30;6.55;;;4.30;;
51048;SDS011;37084;55.228;36.450;2023-07-02T03:40:31;7.18;;;4.22;;
51048;SDS011;37084;55.228;36.450;2023-07-02T03:43:32;7.50;;;4.30;;
51048;SDS011;37084;55.228;36.450;2023-07-02T03:46:35;6.15;;;4.00;;
51048;SDS011;37084;55.228;36.450;2023-07-02T03:49:36;6.43;;;5.07;;
51048;SDS011;37084;55.228;36.450;2023-07-02T03:52:37;7.53;;;4.10;;
51048;SDS011;37084;55.228;36.450;2023-07-02T03:55:39;5.57;;;4.20;;
51048;SDS011;37084;55.228;36.450;2023-07-02T03:58:41;5.50;;;3.58;;
51048;SDS011;37084;55.228;36.450;2023-07-02T04:01:42;7.43;;;4.05;;
51048;SDS011;37084;55.228;36.450;2023-07-02T04:04:44;6.00;;;3.72;;
51048;SDS011;37084;55.228;36.450;2023-07-02T04:07:45;6.85;;;3.53;;
51048;SDS011;37084;55.228;36.450;2023-07-02T04:10:48;8.43;;;4.00;;
51048;SDS011;37084;55.228;36.450;2023-07-02T04:13:49;5.63;;;3.92;;
51048;SDS011;37084;55.228;36.450;2023-07-02T04:16:50;4.88;;;3.58;;
51048;SDS011;37084;55.228;36.450;2023-07-02T04:19:53;6.40;;;4.18;;
51048;SDS011;37084;55.228;36.450;2023-07-02T04:22:55;6.88;;;4.20;;
51048;SDS011;37084;55.228;36.450;2023-07-02T04:25:57;5.60;;;3.85;;
51048;SDS011;37084;55.228;36.450;2023-07-02T04:28:58;6.07;;;4.43;;
51048;SDS011;37084;55.228;36.450;2023-07-02T04:31:59;8.23;;;4.15;;
51048;SDS011;37084;55.228;36.450;2023-07-02T04:35:02;5.68;;;3.75;;
51048;SDS011;37084;55.228;36.450;2023-07-02T04:38:05;7.78;;;4.40;;
51048;SDS011;37084;55.228;36.450;2023-07-02T04:41:08;6.80;;;4.68;;
51048;SDS011;37084;55.228;36.450;2023-07-02T04:44:11;9.70;;;4.05;;
51048;SDS011;37084;55.228;36.450;2023-07-02T04:47:13;7.45;;;4.30;;
51048;SDS011;37084;55.228;36.450;2023-07-02T04:50:14;7.53;;;4.00;;
51048;SDS011;37084;55.228;36.450;2023-07-02T04:53:16;5.45;;;3.97;;
51048;SDS011;37084;55.228;36.450;2023-07-02T04:56:18;7.00;;;4.18;;
51048;SDS011;37084;55.228;36.450;2023-07-02T04:59:20;7.13;;;4.18;;
51048;SDS011;37084;55.228;36.450;2023-07-02T05:02:22;6.82;;;4.15;;
51048;SDS011;37084;55.228;36.450;2023-07-02T05:05:23;7.55;;;4.28;;
51048;SDS011;37084;55.228;36.450;2023-07-02T05:08:24;6.25;;;4.13;;
51048;SDS011;37084;55.228;36.450;2023-07-02T05:11:25;7.60;;;3.90;;
51048;SDS011;37084;55.228;36.450;2023-07-02T05:14:27;6.78;;;4.05;;
51048;SDS011;37084;55.228;36.450;2023-07-02T05:17:29;8.40;;;4.00;;
51048;SDS011;37084;55.228;36.450;2023-07-02T05:20:31;6.30;;;4.07;;
51048;SDS011;37084;55.228;36.450;2023-07-02T05:23:32;7.65;;;4.28;;
51048;SDS011;37084;55.228;36.450;2023-07-02T05:26:34;6.07;;;4.68;;
51048;SDS011;37084;55.228;36.450;2023-07-02T05:29:35;6.85;;;4.05;;
51048;SDS011;37084;55.228;36.450;2023-07-02T05:32:37;6.57;;;3.60;;
51048;SDS011;37084;55.228;36.450;2023-07-02T05:35:40;6.50;;;4.03;;
51048;SDS011;37084;55.228;36.450;2023-07-02T05:38:41;6.88;;;3.95;;
51048;SDS011;37084;55.228;36.450;2023-07-02T05:41:43;8.45;;;3.78;;
51048;SDS011;37084;55.228;36.450;2023-07-02T05:44:44;4.47;;;3.08;;
51048;SDS011;37084;55.228;36.450;2023-07-02T05:47:47;5.30;;;3.63;;
51048;SDS011;37084;55.228;36.450;2023-07-02T05:50:48;5.72;;;3.78;;
51048;SDS011;37084;55.228;36.450;2023-07-02T05:53:50;6.60;;;3.97;;
51048;SDS011;37084;55.228;36.450;2023-07-02T05:56:52;5.07;;;3.40;;
51048;SDS011;37084;55.228;36.450;2023-07-02T05:59:53;6.78;;;3.75;;
51048;SDS011;37084;55.228;36.450;2023-07-02T06:02:55;10.27;;;3.83;;
51048;SDS011;37084;55.228;36.450;2023-07-02T06:05:56;6.13;;;3.60;;
51048;SDS011;37084;55.228;36.450;2023-07-02T06:08:57;5.47;;;3.78;;
51048;SDS011;37084;55.228;36.450;2023-07-02T06:11:58;5.60;;;4.00;;
51048;SDS011;37084;55.228;36.450;2023-07-02T06:15:00;6.30;;;3.80;;
51048;SDS011;37084;55.228;36.450;2023-07-02T06:18:01;5.45;;;3.53;;
51048;SDS011;37084;55.228;36.450;2023-07-02T06:21:02;6.55;;;3.72;;
51048;SDS011;37084;55.228;36.450;2023-07-02T06:24:04;5.45;;;3.17;;
51048;SDS011;37084;55.228;36.450;2023-07-02T06:27:05;5.28;;;3.55;;
51048;SDS011;37084;55.228;36.450;2023-07-02T06:30:07;6.60;;;3.85;;
51048;SDS011;37084;55.228;36.450;2023-07-02T06:33:08;5.22;;;3.33;;
51048;SDS011;37084;55.228;36.450;2023-07-02T06:36:10;5.20;;;2.90;;
51048;SDS011;37084;55.228;36.450;2023-07-02T06:42:15;4.90;;;3.42;;
51048;SDS011;37084;55.228;36.450;2023-07-02T06:45:19;5.25;;;3.65;;
51048;SDS011;37084;55.228;36.450;2023-07-02T06:48:21;7.57;;;2.72;;
51048;SDS011;37084;55.228;36.450;2023-07-02T06:51:22;5.75;;;3.50;;
51048;SDS011;37084;55.228;36.450;2023-07-02T06:54:26;5.93;;;3.38;;
51048;SDS011;37084;55.228;36.450;2023-07-02T06:57:27;5.45;;;3.13;;
51048;SDS011;37084;55.228;36.450;2023-07-02T07:00:31;4.97;;;2.17;;
51048;SDS011;37084;55.228;36.450;2023-07-02T07:03:34;6.88;;;3.20;;
51048;SDS011;37084;55.228;36.450;2023-07-02T07:06:37;6.45;;;3.10;;
51048;SDS011;37084;55.228;36.450;2023-07-02T07:09:38;5.82;;;3.05;;
51048;SDS011;37084;55.228;36.450;2023-07-02T07:12:43;5.53;;;2.70;;
51048;SDS011;37084;55.228;36.450;2023-07-02T07:15:45;8.18;;;2.53;;
51048;SDS011;37084;55.228;36.450;2023-07-02T07:18:47;4.38;;;3.00;;
51048;SDS011;37084;55.228;36.450;2023-07-02T07:21:50;5.35;;;2.55;;
51048;SDS011;37084;55.228;36.450;2023-07-02T07:24:51;3.88;;;2.38;;
51048;SDS011;37084;55.228;36.450;2023-07-02T07:27:54;4.68;;;2.40;;
51048;SDS011;37084;55.228;36.450;2023-07-02T07:30:55;5.22;;;2.70;;
51048;SDS011;37084;55.228;36.450;2023-07-02T07:33:56;2.88;;;1.50;;
51048;SDS011;37084;55.228;36.450;2023-07-02T07:36:58;4.78;;;2.15;;
51048;SDS011;37084;55.228;36.450;2023-07-02T07:40:00;3.08;;;1.92;;
51048;SDS011;37084;55.228;36.450;2023-07-02T07:43:04;5.75;;;2.08;;
51048;SDS011;37084;55.228;36.450;2023-07-02T07:49:12;2.70;;;1.63;;
51048;SDS011;37084;55.228;36.450;2023-07-02T07:52:14;4.35;;;2.40;;
51048;SDS011;37084;55.228;36.450;2023-07-02T07:55:16;6.68;;;2.53;;
51048;SDS011;37084;55.228;36.450;2023-07-02T07:58:20;3.90;;;2.47;;
51048;SDS011;37084;55.228;36.450;2023-07-02T08:01:21;7.13;;;2.78;;
51048;SDS011;37084;55.228;36.450;2023-07-02T08:04:23;4.25;;;2.25;;
51048;SDS011;37084;55.228;36.450;2023-07-02T08:07:24;5.10;;;2.80;;
51048;SDS011;37084;55.228;36.450;2023-07-02T08:10:28;5.55;;;3.08;;
51048;SDS011;37084;55.228;36.450;2023-07-02T08:13:29;5.15;;;2.45;;
51048;SDS011;37084;55.228;36.450;2023-07-02T08:16:34;5.32;;;3.05;;
51048;SDS011;37084;55.228;36.450;2023-07-02T08:19:35;7.53;;;3.30;;
51048;SDS011;37084;55.228;36.450;2023-07-02T08:22:38;5.75;;;3.17;;
51048;SDS011;37084;55.228;36.450;2023-07-02T08:25:40;5.70;;;3.00;;
51048;SDS011;37084;55.228;36.450;2023-07-02T08:28:43;5.70;;;3.20;;
51048;SDS011;37084;55.228;36.450;2023-07-02T08:31:46;5.28;;;2.00;;
51048;SDS011;37084;55.228;36.450;2023-07-02T08:34:47;6.57;;;2.85;;
51048;SDS011;37084;55.228;36.450;2023-07-02T08:37:50;5.18;;;2.35;;
51048;SDS011;37084;55.228;36.450;2023-07-02T08:40:51;5.50;;;2.03;;
51048;SDS011;37084;55.228;36.450;2023-07-02T08:43:54;4.05;;;2.85;;
51048;SDS011;37084;55.228;36.450;2023-07-02T08:46:57;5.20;;;2.60;;
51048;SDS011;37084;55.228;36.450;2023-07-02T08:49:58;5.22;;;2.40;;
51048;SDS011;37084;55.228;36.450;2023-07-02T08:53:04;6.30;;;2.47;;
51048;SDS011;37084;55.228;36.450;2023-07-02T08:56:07;5.88;;;2.88;;
51048;SDS011;37084;55.228;36.450;2023-07-02T08:59:09;4.05;;;2.38;;
51048;SDS011;37084;55.228;36.450;2023-07-02T09:02:12;5.47;;;2.75;;
51048;SDS011;37084;55.228;36.450;2023-07-02T09:05:16;7.05;;;2.33;;
51048;SDS011;37084;55.228;36.450;2023-07-02T09:08:27;5.65;;;2.65;;
51048;SDS011;37084;55.228;36.450;2023-07-02T09:11:30;4.28;;;2.38;;
51048;SDS011;37084;55.228;36.450;2023-07-02T09:14:31;4.57;;;2.30;;
51048;SDS011;37084;55.228;36.450;2023-07-02T09:17:34;4.75;;;1.67;;
51048;SDS011;37084;55.228;36.450;2023-07-02T09:20:37;4.45;;;1.83;;
51048;SDS011;37084;55.228;36.450;2023-07-02T09:23:38;4.00;;;2.20;;
51048;SDS011;37084;55.228;36.450;2023-07-02T09:26:50;5.22;;;1.70;;
51048;SDS011;37084;55.228;36.450;2023-07-02T09:29:55;6.78;;;2.58;;
51048;SDS011;37084;55.228;36.450;2023-07-02T09:33:05;6.60;;;2.58;;
51048;SDS011;37084;55.228;36.450;2023-07-02T09:36:09;6.63;;;2.70;;
51048;SDS011;37084;55.228;36.450;2023-07-02T09:39:31;8.50;;;2.53;;
51048;SDS011;37084;55.228;36.450;2023-07-02T09:42:34;4.00;;;1.67;;
51048;SDS011;37084;55.228;36.450;2023-07-02T09:45:41;4.85;;;1.90;;
51048;SDS011;37084;55.228;36.450;2023-07-02T09:48:44;5.60;;;2.42;;
51048;SDS011;37084;55.228;36.450;2023-07-02T09:51:46;2.90;;;1.80;;
51048;SDS011;37084;55.228;36.450;2023-07-02T09:54:48;4.35;;;1.70;;
51048;SDS011;37084;55.228;36.450;2023-07-02T10:00:58;3.35;;;1.65;;
51048;SDS011;37084;55.228;36.450;2023-07-02T10:04:09;3.95;;;1.83;;
51048;SDS011;37084;55.228;36.450;2023-07-02T10:07:25;4.40;;;1.58;;
51048;SDS011;37084;55.228;36.450;2023-07-02T10:10:29;4.43;;;1.75;;
51048;SDS011;37084;55.228;36.450;2023-07-02T10:13:31;5.10;;;1.77;;
51048;SDS011;37084;55.228;36.450;2023-07-02T10:16:49;5.13;;;2.03;;
51048;SDS011;37084;55.228;36.450;2023-07-02T10:19:55;5.03;;;2.05;;
51048;SDS011;37084;55.228;36.450;2023-07-02T10:23:00;4.85;;;1.90;;
51048;SDS011;37084;55.228;36.450;2023-07-02T10:29:19;4.03;;;1.98;;
51048;SDS011;37084;55.228;36.450;2023-07-02T10:32:32;6.78;;;2.45;;
51048;SDS011;37084;55.228;36.450;2023-07-02T10:35:35;3.25;;;1.80;;
51048;SDS011;37084;55.228;36.450;2023-07-02T10:38:38;4.07;;;2.13;;
51048;SDS011;37084;55.228;36.450;2023-07-02T10:41:40;5.32;;;2.25;;
51048;SDS011;37084;55.228;36.450;2023-07-02T10:44:52;4.35;;;1.60;;
51048;SDS011;37084;55.228;36.450;2023-07-02T10:47:54;3.45;;;2.35;;
51048;SDS011;37084;55.228;36.450;2023-07-02T10:50:56;4.53;;;2.03;;
51048;SDS011;37084;55.228;36.450;2023-07-02T10:54:02;4.43;;;2.25;;
51048;SDS011;37084;55.228;36.450;2023-07-02T10:57:08;5.55;;;2.22;;
51048;SDS011;37084;55.228;36.450;2023-07-02T11:00:11;6.43;;;2.45;;
51048;SDS011;37084;55.228;36.450;2023-07-02T11:03:21;4.57;;;3.00;;
51048;SDS011;37084;55.228;36.450;2023-07-02T11:06:26;5.28;;;2.20;;
51048;SDS011;37084;55.228;36.450;2023-07-02T11:09:34;5.70;;;2.50;;
51048;SDS011;37084;55.228;36.450;2023-07-02T11:12:37;7.85;;;2.50;;
51048;SDS011;37084;55.228;36.450;2023-07-02T11:15:41;6.00;;;2.63;;
51048;SDS011;37084;55.228;36.450;2023-07-02T11:18:43;4.15;;;2.20;;
51048;SDS011;37084;55.228;36.450;2023-07-02T11:21:50;3.67;;;2.17;;
51048;SDS011;37084;55.228;36.450;2023-07-02T11:25:18;3.10;;;2.22;;
51048;SDS011;37084;55.228;36.450;2023-07-02T11:28:24;4.97;;;2.50;;
51048;SDS011;37084;55.228;36.450;2023-07-02T11:31:27;5.03;;;2.50;;
51048;SDS011;37084;55.228;36.450;2023-07-02T11:34:29;4.05;;;2.83;;
51048;SDS011;37084;55.228;36.450;2023-07-02T11:37:30;4.00;;;2.95;;
51048;SDS011;37084;55.228;36.450;2023-07-02T18:03:57;8.02;;;3.85;;
51048;SDS011;37084;55.228;36.450;2023-07-02T18:07:00;9.15;;;4.38;;
51048;SDS011;37084;55.228;36.450;2023-07-02T18:10:09;7.45;;;4.00;;
51048;SDS011;37084;55.228;36.450;2023-07-02T18:13:12;7.38;;;3.90;;
51048;SDS011;37084;55.228;36.450;2023-07-02T18:16:15;9.23;;;4.93;;
51048;SDS011;37084;55.228;36.450;2023-07-02T18:19:17;9.82;;;4.25;;
51048;SDS011;37084;55.228;36.450;2023-07-02T18:22:33;9.73;;;4.10;;
51048;SDS011;37084;55.228;36.450;2023-07-02T18:25:35;7.97;;;4.63;;
51048;SDS011;37084;55.228;36.450;2023-07-02T18:28:36;7.65;;;4.50;;
51048;SDS011;37084;55.228;36.450;2023-07-02T18:31:38;8.25;;;4.10;;
51048;SDS011;37084;55.228;36.450;2023-07-02T18:34:45;10.30;;;4.53;;
51048;SDS011;37084;55.228;36.450;2023-07-02T18:37:50;10.70;;;4.35;;
51048;SDS011;37084;55.228;36.450;2023-07-02T18:41:02;7.70;;;4.18;;
51048;SDS011;37084;55.228;36.450;2023-07-02T18:44:06;6.63;;;3.78;;
51048;SDS011;37084;55.228;36.450;2023-07-02T18:47:11;9.23;;;4.07;;
51048;SDS011;37084;55.228;36.450;2023-07-02T18:50:17;9.88;;;4.20;;
51048;SDS011;37084;55.228;36.450;2023-07-02T18:53:18;8.73;;;4.25;;
51048;SDS011;37084;55.228;36.450;2023-07-02T18:56:23;8.85;;;4.25;;
51048;SDS011;37084;55.228;36.450;2023-07-02T18:59:26;10.07;;;4.20;;
51048;SDS011;37084;55.228;36.450;2023-07-02T19:02:34;8.82;;;4.30;;
51048;SDS011;37084;55.228;36.450;2023-07-02T19:05:44;7.47;;;4.30;;
51048;SDS011;37084;55.228;36.450;2023-07-02T19:12:02;8.80;;;4.28;;
51048;SDS011;37084;55.228;36.450;2023-07-02T19:15:10;9.60;;;4.13;;
51048;SDS011;37084;55.228;36.450;2023-07-02T19:18:14;7.50;;;4.22;;
51048;SDS011;37084;55.228;36.450;2023-07-02T19:21:18;7.13;;;4.18;;
51048;SDS011;37084;55.228;36.450;2023-07-02T19:24:25;7.82;;;4.25;;
51048;SDS011;37084;55.228;36.450;2023-07-02T19:27:28;9.85;;;4.40;;
51048;SDS011;37084;55.228;36.450;2023-07-02T19:30:29;8.45;;;4.72;;
51048;SDS011;37084;55.228;36.450;2023-07-02T19:33:31;7.45;;;4.25;;
51048;SDS011;37084;55.228;36.450;2023-07-02T19:36:36;6.28;;;4.38;;
51048;SDS011;37084;55.228;36.450;2023-07-02T19:39:41;7.00;;;4.45;;
51048;SDS011;37084;55.228;36.450;2023-07-02T19:42:44;8.60;;;4.60;;
51048;SDS011;37084;55.228;36.450;2023-07-02T19:45:47;7.45;;;4.88;;
51048;SDS011;37084;55.228;36.450;2023-07-02T19:48:51;7.97;;;4.78;;
51048;SDS011;37084;55.228;36.450;2023-07-02T19:51:54;8.10;;;4.45;;
51048;SDS011;37084;55.228;36.450;2023-07-02T19:55:02;8.15;;;4.80;;
51048;SDS011;37084;55.228;36.450;2023-07-02T19:58:13;8.73;;;4.90;;
51048;SDS011;37084;55.228;36.450;2023-07-02T20:01:22;9.95;;;4.32;;
51048;SDS011;37084;55.228;36.450;2023-07-02T20:04:26;10.48;;;5.53;;
51048;SDS011;37084;55.228;36.450;2023-07-02T20:07:40;9.73;;;4.78;;
51048;SDS011;37084;55.228;36.450;2023-07-02T20:10:41;8.75;;;5.00;;
51048;SDS011;37084;55.228;36.450;2023-07-02T20:13:44;9.88;;;4.88;;
51048;SDS011;37084;55.228;36.450;2023-07-02T20:16:46;9.05;;;4.70;;
51048;SDS011;37084;55.228;36.450;2023-07-02T20:19:52;10.18;;;5.38;;
51048;SDS011;37084;55.228;36.450;2023-07-02T20:22:54;10.27;;;5.05;;
51048;SDS011;37084;55.228;36.450;2023-07-02T20:25:56;10.02;;;5.30;;
51048;SDS011;37084;55.228;36.450;2023-07-02T20:29:02;8.90;;;5.68;;
51048;SDS011;37084;55.228;36.450;2023-07-02T20:32:06;9.65;;;5.57;;
51048;SDS011;37084;55.228;36.450;2023-07-02T20:35:08;9.02;;;5.22;;
51048;SDS011;37084;55.228;36.450;2023-07-02T20:38:10;10.70;;;5.28;;
51048;SDS011;37084;55.228;36.450;2023-07-02T20:41:13;10.35;;;6.20;;
51048;SDS011;37084;55.228;36.450;2023-07-02T20:44:15;9.15;;;5.55;;
51048;SDS011;37084;55.228;36.450;2023-07-02T20:47:21;11.57;;;6.43;;
51048;SDS011;37084;55.228;36.450;2023-07-02T20:50:26;10.85;;;5.53;;
51048;SDS011;37084;55.228;36.450;2023-07-02T20:53:28;10.77;;;6.20;;
51048;SDS011;37084;55.228;36.450;2023-07-02T20:56:34;11.80;;;5.65;;
51048;SDS011;37084;55.228;36.450;2023-07-02T20:59:36;9.65;;;6.40;;
51048;SDS011;37084;55.228;36.450;2023-07-02T21:02:40;12.00;;;6.35;;
51048;SDS011;37084;55.228;36.450;2023-07-02T21:05:45;10.07;;;5.93;;
51048;SDS011;37084;55.228;36.450;2023-07-02T21:08:47;15.80;;;6.30;;
51048;SDS011;37084;55.228;36.450;2023-07-02T21:11:53;14.10;;;6.20;;
51048;SDS011;37084;55.228;36.450;2023-07-02T21:14:54;11.35;;;6.32;;
51048;SDS011;37084;55.228;36.450;2023-07-02T21:17:59;11.25;;;6.28;;
51048;SDS011;37084;55.228;36.450;2023-07-02T21:21:03;14.93;;;6.70;;
51048;SDS011;37084;55.228;36.450;2023-07-02T21:24:04;13.05;;;6.60;;
51048;SDS011;37084;55.228;36.450;2023-07-02T21:27:07;12.82;;;6.57;;
51048;SDS011;37084;55.228;36.450;2023-07-02T21:30:10;16.13;;;7.82;;
51048;SDS011;37084;55.228;36.450;2023-07-02T21:33:12;14.88;;;7.78;;
51048;SDS011;37084;55.228;36.450;2023-07-02T21:36:14;13.77;;;7.75;;
51048;SDS011;37084;55.228;36.450;2023-07-02T21:39:15;15.43;;;7.57;;
51048;SDS011;37084;55.228;36.450;2023-07-02T21:42:18;15.60;;;8.00;;
51048;SDS011;37084;55.228;36.450;2023-07-02T21:45:19;16.02;;;7.90;;
51048;SDS011;37084;55.228;36.450;2023-07-02T21:48:21;14.55;;;7.68;;
51048;SDS011;37084;55.228;36.450;2023-07-02T21:51:22;13.70;;;7.97;;
51048;SDS011;37084;55.228;36.450;2023-07-02T21:54:23;15.93;;;7.57;;
51048;SDS011;37084;55.228;36.450;2023-07-02T21:57:30;14.48;;;8.05;;
51048;SDS011;37084;55.228;36.450;2023-07-02T22:00:31;13.35;;;7.60;;
51048;SDS011;37084;55.228;36.450;2023-07-02T22:03:35;20.25;;;7.93;;
51048;SDS011;37084;55.228;36.450;2023-07-02T22:06:38;13.68;;;7.90;;
51048;SDS011;37084;55.228;36.450;2023-07-02T22:09:41;16.60;;;7.93;;
51048;SDS011;37084;55.228;36.450;2023-07-02T22:12:43;13.55;;;7.57;;
51048;SDS011;37084;55.228;36.450;2023-07-02T22:15:49;13.60;;;7.57;;
51048;SDS011;37084;55.228;36.450;2023-07-02T22:18:51;15.43;;;8.13;;
51048;SDS011;37084;55.228;36.450;2023-07-02T22:21:55;15.10;;;7.75;;
51048;SDS011;37084;55.228;36.450;2023-07-02T22:24:57;16.08;;;8.13;;
51048;SDS011;37084;55.228;36.450;2023-07-02T22:27:59;15.00;;;7.40;;
51048;SDS011;37084;55.228;36.450;2023-07-02T22:31:01;12.60;;;8.10;;
51048;SDS011;37084;55.228;36.450;2023-07-02T22:34:03;13.75;;;8.02;;
51048;SDS011;37084;55.228;36.450;2023-07-02T22:37:05;14.63;;;7.55;;
51048;SDS011;37084;55.228;36.450;2023-07-02T22:40:10;13.90;;;7.82;;
51048;SDS011;37084;55.228;36.450;2023-07-02T22:43:13;12.85;;;7.78;;
51048;SDS011;37084;55.228;36.450;2023-07-02T22:46:14;14.50;;;7.68;;
51048;SDS011;37084;55.228;36.450;2023-07-02T22:49:16;12.80;;;7.38;;
51048;SDS011;37084;55.228;36.450;2023-07-02T22:52:17;13.52;;;7.60;;
51048;SDS011;37084;55.228;36.450;2023-07-02T22:55:18;13.52;;;7.43;;
51048;SDS011;37084;55.228;36.450;2023-07-02T22:58:21;13.20;;;7.45;;
51048;SDS011;37084;55.228;36.450;2023-07-02T23:01:22;12.80;;;7.97;;
51048;SDS011;37084;55.228;36.450;2023-07-02T23:04:23;18.35;;;7.68;;
51048;SDS011;37084;55.228;36.450;2023-07-02T23:07:24;13.05;;;8.48;;
51048;SDS011;37084;55.228;36.450;2023-07-02T23:10:25;15.13;;;7.40;;
51048;SDS011;37084;55.228;36.450;2023-07-02T23:13:27;12.95;;;7.63;;
51048;SDS011;37084;55.228;36.450;2023-07-02T23:16:28;15.13;;;7.75;;
51048;SDS011;37084;55.228;36.450;2023-07-02T23:19:30;11.57;;;6.95;;
51048;SDS011;37084;55.228;36.450;2023-07-02T23:22:34;11.10;;;7.05;;
51048;SDS011;37084;55.228;36.450;2023-07-02T23:25:41;17.10;;;7.93;;
51048;SDS011;37084;55.228;36.450;2023-07-02T23:28:47;13.15;;;7.78;;
51048;SDS011;37084;55.228;36.450;2023-07-02T23:31:55;13.43;;;7.07;;
51048;SDS011;37084;55.228;36.450;2023-07-02T23:34:56;12.88;;;7.25;;
51048;SDS011;37084;55.228;36.450;2023-07-02T23:38:00;12.73;;;7.28;;
51048;SDS011;37084;55.228;36.450;2023-07-02T23:41:04;16.55;;;8.00;;
51048;SDS011;37084;55.228;36.450;2023-07-02T23:44:06;11.48;;;6.78;;
51048;SDS011;37084;55.228;36.450;2023-07-02T23:47:08;14.23;;;7.25;;
51048;SDS011;37084;55.228;36.450;2023-07-02T23:50:10;12.85;;;7.13;;
51048;SDS011;37084;55.228;36.450;2023-07-02T23:53:11;12.55;;;7.18;;
51048;SDS011;37084;55.228;36.450;2023-07-02T23:56:13;11.57;;;7.15;;
51048;SDS011;37084;55.228;36.450;2023-07-02T23:59:15;11.65;;;6.72;;
